Time;durP1;ratioP1;P1;durP2;ratioP2;P2;SDS_P1;SDS_P2;PMS_P1;PMS_P2;Temp;Humidity;BMP_temperature;BMP_pressure;BME280_temperature;BME280_humidity;BME280_pressure;Samples;Min_cycle;Max_cycle;Signal;HPM_P1;HPM_P2
2022/01/27 00:03:15;;;;;;;5.97;3.70;;;23.50;39.80;;;;;;5062378;27;88906;-70
2022/01/27 00:05:50;;;;;;;5.27;3.37;;;23.40;39.80;;;;;;5078319;27;88372;-69
2022/01/27 00:08:22;;;;;;;4.80;3.53;;;23.30;39.90;;;;;;5069708;27;88628;-69
2022/01/27 00:10:53;;;;;;;6.03;3.30;;;23.20;39.80;;;;;;5074819;27;90729;-69
2022/01/27 00:13:29;;;;;;;5.23;3.03;;;23.20;40.00;;;;;;5063894;27;89536;-69
2022/01/27 00:16:12;;;;;;;6.37;3.60;;;23.10;39.90;;;;;;5083464;27;88350;-69
2022/01/27 00:18:40;;;;;;;4.77;3.20;;;23.10;40.60;;;;;;5064096;27;88546;-69
2022/01/27 00:21:09;;;;;;;4.00;2.73;;;23.20;40.00;;;;;;5068511;27;90587;-69
2022/01/27 00:23:37;;;;;;;4.60;3.00;;;23.30;40.00;;;;;;5075384;27;90141;-70
2022/01/27 00:26:05;;;;;;;3.80;2.60;;;23.40;40.00;;;;;;5065287;27;88321;-70
2022/01/27 00:28:33;;;;;;;4.87;2.37;;;23.60;39.90;;;;;;5065872;27;88554;-70
2022/01/27 00:31:01;;;;;;;6.37;3.30;;;23.80;39.80;;;;;;5077923;27;89538;-69
2022/01/27 00:33:29;;;;;;;3.27;2.57;;;23.90;39.80;;;;;;5080759;27;89954;-69
2022/01/27 00:35:57;;;;;;;3.70;2.43;;;24.00;39.70;;;;;;5080964;27;88539;-70
2022/01/27 00:38:26;;;;;;;4.40;3.10;;;24.00;39.60;;;;;;5095306;27;88399;-69
2022/01/27 00:40:54;;;;;;;5.90;3.28;;;24.00;39.50;;;;;;5066632;27;88454;-69
2022/01/27 00:43:23;;;;;;;3.23;2.33;;;23.80;39.30;;;;;;5062008;27;90045;-69
2022/01/27 00:45:51;;;;;;;3.90;2.83;;;24.10;39.20;;;;;;5062513;27;88633;-69
2022/01/27 00:48:19;;;;;;;5.20;2.60;;;24.20;39.30;;;;;;5066708;27;88576;-69
2022/01/27 00:50:50;;;;;;;3.57;2.13;;;24.10;39.10;;;;;;5065117;27;90945;-69
2022/01/27 00:53:30;;;;;;;6.23;2.63;;;24.00;39.20;;;;;;5067030;27;88954;-69
2022/01/27 00:56:11;;;;;;;5.80;3.27;;;24.00;39.30;;;;;;5071159;27;88500;-69
2022/01/27 00:58:49;;;;;;;4.37;2.40;;;23.90;39.30;;;;;;5062422;27;88570;-69
2022/01/27 01:01:21;;;;;;;3.47;1.90;;;23.80;39.40;;;;;;5081001;27;90718;-69
2022/01/27 01:03:51;;;;;;;4.23;2.23;;;23.70;39.50;;;;;;5082732;27;90892;-68
2022/01/27 01:06:32;;;;;;;5.33;2.27;;;23.60;39.50;;;;;;5077787;27;88563;-69
2022/01/27 01:14:40;;;;;;;4.67;3.00;;;23.30;39.70;;;;;;5060692;27;92627;-69
2022/01/27 01:17:25;;;;;;;6.23;2.53;;;23.30;39.80;;;;;;5072308;27;89177;-69
2022/01/27 01:20:06;;;;;;;3.00;2.30;;;23.20;39.80;;;;;;5081586;27;88706;-69
2022/01/27 01:30:59;;;;;;;6.17;2.30;;;23.00;40.00;;;;;;5077699;27;89591;-69
2022/01/27 01:33:33;;;;;;;3.60;2.57;;;22.90;39.90;;;;;;5080668;27;89466;-69
2022/01/27 01:36:12;;;;;;;4.70;2.33;;;22.80;40.00;;;;;;5076024;27;89169;-68
2022/01/27 01:38:40;;;;;;;3.07;2.13;;;22.80;40.00;;;;;;5081428;27;88531;-68
2022/01/27 01:41:08;;;;;;;4.47;2.40;;;22.70;40.00;;;;;;5075033;27;88519;-69
2022/01/27 01:43:38;;;;;;;3.10;2.50;;;22.70;40.00;;;;;;5065647;27;89619;-69
2022/01/27 01:46:06;;;;;;;5.40;2.53;;;22.70;40.10;;;;;;5074674;27;89969;-69
2022/01/27 01:48:34;;;;;;;5.00;2.60;;;22.70;40.10;;;;;;5094360;27;88540;-69
2022/01/27 01:51:03;;;;;;;5.33;2.57;;;22.70;40.10;;;;;;5080605;27;88621;-69
2022/01/27 01:53:31;;;;;;;6.80;2.30;;;22.60;40.10;;;;;;5062490;27;91082;-69
2022/01/27 01:55:59;;;;;;;4.07;2.00;;;22.60;40.10;;;;;;5075900;27;89741;-68
2022/01/27 01:58:27;;;;;;;2.63;2.00;;;22.60;40.20;;;;;;5070485;27;88608;-68
2022/01/27 02:00:57;;;;;;;4.43;2.53;;;22.60;40.20;;;;;;5069961;27;88559;-68
2022/01/27 02:03:25;;;;;;;3.67;2.23;;;22.50;40.10;;;;;;5079844;27;90513;-69
2022/01/27 02:05:56;;;;;;;2.33;1.90;;;22.50;40.10;;;;;;5066111;27;89347;-68
2022/01/27 02:08:38;;;;;;;3.30;2.87;;;22.40;40.70;;;;;;5076185;27;88655;-68
2022/01/27 02:19:26;;;;;;;2.83;2.00;;;22.30;40.20;;;;;;5074682;27;88351;-68
2022/01/27 02:21:57;;;;;;;3.10;2.50;;;22.20;40.10;;;;;;5074883;27;88637;-68
2022/01/27 02:24:26;;;;;;;4.37;2.60;;;22.30;40.20;;;;;;5079598;27;90682;-68
2022/01/27 02:26:54;;;;;;;4.27;2.17;;;22.20;40.20;;;;;;5079907;27;89991;-68
2022/01/27 02:29:22;;;;;;;3.47;2.33;;;22.20;40.20;;;;;;5080168;27;88603;-68
2022/01/27 02:31:51;;;;;;;5.67;2.30;;;22.20;40.20;;;;;;5079818;27;88593;-68
2022/01/27 02:34:19;;;;;;;3.83;2.43;;;22.10;40.10;;;;;;5078375;27;89863;-68
2022/01/27 02:36:47;;;;;;;3.60;2.33;;;22.10;40.20;;;;;;5079213;27;89939;-68
2022/01/27 02:39:17;;;;;;;3.53;2.10;;;22.10;40.20;;;;;;5080140;27;88510;-68
2022/01/27 02:41:48;;;;;;;3.57;2.37;;;22.10;40.20;;;;;;5079986;27;89999;-68
2022/01/27 02:44:26;;;;;;;3.60;2.50;;;22.10;40.20;;;;;;5069434;27;89995;-68
2022/01/27 02:46:54;;;;;;;5.10;2.07;;;22.00;40.20;;;;;;5083871;27;89993;-68
2022/01/27 02:49:22;;;;;;;4.23;2.00;;;22.00;40.20;;;;;;5084287;27;88438;-68
2022/01/27 02:51:50;;;;;;;3.30;2.27;;;22.00;40.30;;;;;;5079716;27;88517;-68
2022/01/27 02:54:19;;;;;;;4.33;2.60;;;21.90;40.20;;;;;;5083126;27;89893;-68
2022/01/27 02:56:47;;;;;;;4.07;2.20;;;21.90;40.20;;;;;;5082803;27;89691;-68
2022/01/27 02:59:16;;;;;;;5.23;2.60;;;21.90;40.30;;;;;;5074039;27;88578;-68
2022/01/27 03:01:45;;;;;;;3.70;2.37;;;21.80;40.20;;;;;;5073334;27;88492;-68
2022/01/27 03:04:13;;;;;;;4.17;2.23;;;21.80;40.30;;;;;;5083240;27;89679;-68
2022/01/27 03:06:41;;;;;;;3.03;2.37;;;21.80;40.30;;;;;;5089006;27;89675;-68
2022/01/27 03:09:09;;;;;;;3.40;2.10;;;21.70;40.30;;;;;;5105275;27;88394;-68
2022/01/27 03:11:43;;;;;;;4.53;2.50;;;21.70;40.20;;;;;;5072093;27;88990;-68
2022/01/27 03:14:11;;;;;;;3.70;1.87;;;21.70;40.30;;;;;;5084566;27;89329;-68
2022/01/27 03:16:40;;;;;;;3.97;2.30;;;21.70;40.30;;;;;;5095893;27;92482;-68
2022/01/27 03:19:08;;;;;;;3.30;2.23;;;21.70;40.30;;;;;;5083565;27;88351;-68
2022/01/27 03:21:36;;;;;;;4.63;2.17;;;21.70;40.40;;;;;;5082827;27;89910;-69
2022/01/27 03:24:04;;;;;;;3.03;1.83;;;21.60;40.30;;;;;;5083504;27;89241;-69
2022/01/27 03:26:32;;;;;;;2.43;2.20;;;21.60;40.30;;;;;;5083501;27;91545;-69
2022/01/27 03:29:02;;;;;;;3.87;2.27;;;21.60;40.30;;;;;;5074228;27;88525;-69
2022/01/27 03:31:30;;;;;;;4.67;2.40;;;21.60;41.00;;;;;;5065307;27;88587;-69
2022/01/27 03:33:58;;;;;;;4.60;2.33;;;21.60;40.30;;;;;;5077792;27;92835;-68
2022/01/27 03:36:26;;;;;;;3.23;2.13;;;21.60;40.40;;;;;;5101025;27;89046;-68
2022/01/27 03:38:54;;;;;;;4.13;2.07;;;21.50;40.30;;;;;;5096485;27;88528;-68
2022/01/27 03:41:23;;;;;;;4.73;2.40;;;21.50;40.30;;;;;;5083490;27;88707;-68
2022/01/27 03:43:52;;;;;;;4.87;2.13;;;21.50;40.40;;;;;;5083280;27;90706;-68
2022/01/27 03:46:21;;;;;;;3.40;1.70;;;21.50;40.40;;;;;;5082996;27;89944;-68
2022/01/27 03:48:49;;;;;;;4.80;2.30;;;21.50;40.40;;;;;;5082276;27;88362;-68
2022/01/27 03:51:17;;;;;;;3.50;2.00;;;21.40;40.40;;;;;;5072034;27;88726;-69
2022/01/27 03:53:46;;;;;;;3.97;2.83;;;21.40;40.40;;;;;;5064292;27;90583;-69
2022/01/27 03:56:14;;;;;;;3.07;2.60;;;21.40;40.40;;;;;;5083656;27;89976;-68
2022/01/27 03:58:42;;;;;;;3.87;2.10;;;21.40;40.40;;;;;;5083576;27;88569;-68
2022/01/27 04:01:10;;;;;;;3.87;2.17;;;21.40;40.40;;;;;;5083019;27;88527;-68
2022/01/27 04:03:40;;;;;;;4.07;2.30;;;21.30;40.30;;;;;;5082769;27;92107;-68
2022/01/27 04:06:09;;;;;;;4.13;2.63;;;21.30;40.30;;;;;;5082288;27;89981;-68
2022/01/27 04:08:38;;;;;;;4.33;2.50;;;21.30;40.40;;;;;;5081041;27;88243;-68
2022/01/27 04:11:06;;;;;;;4.03;1.80;;;21.30;40.50;;;;;;5082752;27;88459;-69
2022/01/27 04:13:34;;;;;;;3.67;2.30;;;21.30;40.50;;;;;;5082997;27;89688;-69
2022/01/27 04:16:03;;;;;;;5.60;2.30;;;21.20;40.40;;;;;;5082388;27;89986;-68
2022/01/27 04:18:31;;;;;;;3.77;2.23;;;21.20;40.40;;;;;;5069997;27;88637;-68
2022/01/27 04:21:00;;;;;;;3.50;2.33;;;21.20;40.40;;;;;;5076613;27;90655;-68
2022/01/27 04:23:28;;;;;;;3.87;2.83;;;21.20;40.50;;;;;;5092922;27;89724;-68
2022/01/27 04:25:56;;;;;;;4.30;2.43;;;21.20;40.50;;;;;;5081284;27;89313;-68
2022/01/27 04:28:28;;;;;;;4.40;2.33;;;21.20;40.50;;;;;;5082530;27;88416;-68
2022/01/27 04:30:58;;;;;;;2.87;2.00;;;21.20;40.50;;;;;;5082766;27;88507;-68
2022/01/27 04:33:29;;;;;;;3.77;1.80;;;21.20;40.50;;;;;;5082207;27;90879;-68
2022/01/27 04:36:00;;;;;;;5.57;2.17;;;21.20;40.50;;;;;;5081733;27;91957;-68
2022/01/27 04:38:35;;;;;;;2.43;2.20;;;21.20;40.50;;;;;;5102429;27;88391;-68
2022/01/27 04:41:10;;;;;;;3.90;2.67;;;21.10;40.50;;;;;;5086338;27;89748;-68
2022/01/27 04:43:44;;;;;;;3.03;1.93;;;21.10;40.50;;;;;;5081093;27;89682;-68
2022/01/27 04:46:25;;;;;;;2.93;2.23;;;21.10;40.60;;;;;;5084806;27;88962;-68
2022/01/27 04:48:56;;;;;;;4.60;2.07;;;21.10;40.60;;;;;;5082316;27;88277;-69
2022/01/27 04:51:24;;;;;;;3.73;1.60;;;21.00;40.50;;;;;;5082889;27;88465;-68
2022/01/27 04:54:00;;;;;;;2.50;1.77;;;21.00;40.60;;;;;;5082353;27;93269;-68
2022/01/27 04:56:30;;;;;;;5.17;2.13;;;21.00;40.60;;;;;;5082223;27;90070;-68
2022/01/27 04:59:02;;;;;;;3.60;2.23;;;21.00;40.60;;;;;;5081217;27;88513;-68
2022/01/27 05:01:35;;;;;;;4.80;2.00;;;20.90;40.60;;;;;;5081102;27;88768;-68
2022/01/27 05:04:08;;;;;;;2.00;1.67;;;20.90;40.60;;;;;;5080966;27;89652;-68
2022/01/27 05:06:36;;;;;;;2.43;1.77;;;20.90;40.70;;;;;;5088659;27;90561;-68
2022/01/27 05:09:06;;;;;;;3.53;1.67;;;20.90;40.70;;;;;;5081827;27;88370;-69
2022/01/27 05:11:37;;;;;;;2.20;1.87;;;20.90;40.70;;;;;;5081627;27;88561;-69
2022/01/27 05:14:11;;;;;;;5.53;2.40;;;20.90;40.70;;;;;;5081287;27;90647;-68
2022/01/27 05:16:39;;;;;;;2.27;1.73;;;20.80;40.60;;;;;;5072359;27;88519;-68
2022/01/27 05:19:07;;;;;;;1.60;1.47;;;20.80;40.70;;;;;;5072931;27;88485;-68
2022/01/27 05:21:35;;;;;;;3.53;2.10;;;20.80;40.70;;;;;;5082600;27;88657;-69
2022/01/27 05:24:03;;;;;;;4.73;2.47;;;20.80;40.70;;;;;;5075585;27;89653;-68
2022/01/27 05:26:33;;;;;;;4.57;1.77;;;20.80;40.80;;;;;;5080980;27;89600;-68
2022/01/27 05:29:01;;;;;;;2.07;1.87;;;20.80;40.80;;;;;;5080170;27;89694;-68
2022/01/27 05:31:29;;;;;;;5.17;2.00;;;20.80;41.40;;;;;;5064317;27;88633;-68
2022/01/27 05:33:57;;;;;;;3.17;1.60;;;20.80;40.80;;;;;;5081236;27;89790;-68
2022/01/27 05:36:25;;;;;;;4.27;2.00;;;20.80;40.80;;;;;;5081942;27;89440;-68
2022/01/27 05:38:53;;;;;;;2.70;1.43;;;20.80;40.80;;;;;;5062341;27;88403;-68
2022/01/27 05:41:22;;;;;;;4.27;2.20;;;20.80;40.80;;;;;;5081490;27;88635;-68
2022/01/27 05:43:51;;;;;;;2.77;2.07;;;20.70;40.80;;;;;;5070873;27;90417;-68
2022/01/27 05:46:19;;;;;;;4.47;1.67;;;20.70;40.80;;;;;;5079172;27;90326;-68
2022/01/27 05:48:47;;;;;;;2.17;1.90;;;20.70;40.80;;;;;;5074635;27;88415;-68
2022/01/27 05:51:15;;;;;;;1.87;1.40;;;20.70;40.90;;;;;;5080737;27;88728;-68
2022/01/27 05:53:43;;;;;;;3.63;1.83;;;20.70;40.90;;;;;;5081239;27;90197;-68
2022/01/27 05:56:11;;;;;;;2.10;1.70;;;20.70;40.90;;;;;;5081109;27;91486;-68
2022/01/27 05:58:39;;;;;;;4.13;1.87;;;20.60;40.80;;;;;;5083495;27;88543;-68
2022/01/27 06:01:08;;;;;;;2.97;1.97;;;20.60;40.80;;;;;;5080410;27;89335;-68
2022/01/27 06:03:37;;;;;;;5.33;2.37;;;20.60;40.90;;;;;;5080351;27;89475;-68
2022/01/27 06:06:05;;;;;;;3.47;1.90;;;20.60;41.60;;;;;;5093887;27;88402;-68
2022/01/27 06:08:33;;;;;;;4.83;2.13;;;20.60;41.00;;;;;;5101742;27;88389;-69
2022/01/27 06:11:01;;;;;;;2.60;1.93;;;20.60;41.00;;;;;;5082254;27;88663;-68
2022/01/27 06:13:29;;;;;;;2.50;1.90;;;20.60;41.00;;;;;;5080238;27;89611;-68
2022/01/27 06:15:57;;;;;;;5.27;1.83;;;20.60;41.00;;;;;;5082978;27;90032;-68
2022/01/27 06:18:27;;;;;;;4.17;1.67;;;20.60;41.10;;;;;;5084806;27;88430;-68
2022/01/27 06:20:59;;;;;;;2.73;1.60;;;20.50;41.00;;;;;;5085402;27;88701;-68
2022/01/27 06:23:27;;;;;;;1.67;1.47;;;20.50;41.00;;;;;;5084166;27;90736;-68
2022/01/27 06:25:56;;;;;;;3.43;1.47;;;20.50;41.10;;;;;;5084714;27;89298;-68
2022/01/27 06:28:24;;;;;;;2.60;1.53;;;20.50;41.10;;;;;;5081706;27;88475;-68
2022/01/27 06:30:52;;;;;;;2.13;1.93;;;20.50;41.10;;;;;;5084216;27;88481;-68
2022/01/27 06:33:20;;;;;;;2.93;1.83;;;20.50;41.10;;;;;;5081594;27;89474;-68
2022/01/27 06:35:49;;;;;;;3.27;1.70;;;20.50;41.10;;;;;;5063870;27;89956;-68
2022/01/27 06:38:17;;;;;;;2.53;1.87;;;20.40;41.10;;;;;;5080750;27;88243;-68
2022/01/27 06:40:45;;;;;;;4.10;2.07;;;20.50;41.20;;;;;;5083554;27;88749;-68
2022/01/27 06:43:13;;;;;;;3.00;1.67;;;20.50;41.20;;;;;;5083656;27;90565;-68
2022/01/27 06:45:41;;;;;;;2.60;1.47;;;20.40;41.10;;;;;;5087371;27;88754;-68
2022/01/27 06:48:09;;;;;;;4.07;1.70;;;20.40;41.10;;;;;;5083656;27;88368;-68
2022/01/27 06:50:38;;;;;;;1.60;1.20;;;20.40;41.10;;;;;;5083505;27;88571;-68
2022/01/27 06:53:09;;;;;;;1.60;1.37;;;20.40;41.20;;;;;;5079930;27;90505;-68
2022/01/27 06:55:38;;;;;;;2.23;2.00;;;20.40;41.20;;;;;;5079738;27;89610;-67
2022/01/27 06:58:06;;;;;;;1.50;1.40;;;20.40;41.20;;;;;;5083115;27;88301;-68
2022/01/27 07:00:34;;;;;;;4.03;1.43;;;20.40;41.30;;;;;;5067297;27;88471;-68
2022/01/27 07:03:02;;;;;;;2.57;1.80;;;20.30;41.20;;;;;;5063260;27;90101;-67
2022/01/27 07:05:32;;;;;;;3.17;1.60;;;20.30;41.30;;;;;;5096730;27;90252;-67
2022/01/27 07:08:00;;;;;;;4.13;1.67;;;20.30;41.40;;;;;;5066503;27;88695;-67
2022/01/27 07:10:29;;;;;;;2.97;2.00;;;20.30;41.40;;;;;;5077645;27;88683;-67
2022/01/27 07:12:57;;;;;;;2.60;1.73;;;20.30;41.50;;;;;;5104144;27;90571;-67
2022/01/27 07:15:27;;;;;;;2.20;1.50;;;20.30;41.60;;;;;;5073460;27;89224;-65
2022/01/27 07:17:55;;;;;;;2.10;1.40;;;20.30;41.70;;;;;;5063662;27;88461;-66
2022/01/27 07:20:23;;;;;;;3.93;1.70;;;20.30;41.90;;;;;;5070580;27;88656;-65
2022/01/27 07:22:51;;;;;;;5.33;2.00;;;20.30;42.10;;;;;;5075063;27;89581;-65
2022/01/27 07:25:19;;;;;;;2.10;1.50;;;20.30;42.30;;;;;;5078264;27;89158;-65
2022/01/27 07:27:49;;;;;;;3.77;1.53;;;20.30;42.50;;;;;;5083208;27;88488;-65
2022/01/27 07:30:16;;;;;;;4.53;2.13;;;20.30;42.60;;;;;;5071117;27;88525;-64
2022/01/27 07:32:44;;;;;;;4.50;2.30;;;20.50;43.50;;;;;;5080895;27;89537;-65
2022/01/27 07:35:12;;;;;;;10.17;1.67;;;20.60;42.90;;;;;;5083703;27;90023;-65
2022/01/27 07:37:42;;;;;;;7.40;1.87;;;20.70;42.90;;;;;;5082244;27;88404;-65
2022/01/27 07:40:11;;;;;;;6.83;2.27;;;20.90;43.00;;;;;;5080937;27;88850;-65
2022/01/27 07:42:39;;;;;;;2.63;1.50;;;21.20;43.20;;;;;;5082460;27;89717;-65
2022/01/27 07:45:09;;;;;;;3.07;1.77;;;21.50;43.20;;;;;;5077871;27;89008;-65
2022/01/27 07:47:37;;;;;;;5.27;1.97;;;21.70;43.20;;;;;;5083940;27;88469;-65
2022/01/27 07:50:09;;;;;;;5.57;1.50;;;22.00;43.10;;;;;;5083614;27;88484;-65
2022/01/27 07:52:37;;;;;;;12.20;1.53;;;22.20;43.10;;;;;;5082300;27;89477;-66
2022/01/27 07:55:06;;;;;;;6.53;2.00;;;22.40;43.10;;;;;;5081886;27;89941;-66
2022/01/27 07:57:34;;;;;;;4.50;1.83;;;22.50;43.00;;;;;;5080469;27;88614;-65
2022/01/27 08:00:02;;;;;;;5.77;1.73;;;22.60;43.00;;;;;;5078965;27;88636;-66
2022/01/27 08:02:32;;;;;;;2.07;1.50;;;22.60;43.00;;;;;;5079288;27;90633;-66
2022/01/27 08:05:00;;;;;;;3.10;1.57;;;22.60;43.00;;;;;;5081059;27;90667;-65
2022/01/27 08:07:28;;;;;;;1.57;1.23;;;22.60;43.00;;;;;;5080640;27;88619;-65
2022/01/27 08:09:56;;;;;;;4.43;1.93;;;22.60;43.10;;;;;;5082422;27;89925;-65
2022/01/27 08:12:24;;;;;;;6.10;1.90;;;22.50;43.00;;;;;;5078890;27;90090;-66
2022/01/27 08:14:53;;;;;;;6.57;1.90;;;22.50;43.10;;;;;;5089738;27;89926;-65
2022/01/27 08:17:21;;;;;;;1.90;1.40;;;22.40;43.10;;;;;;5086974;27;88539;-65
2022/01/27 08:19:50;;;;;;;4.20;1.17;;;22.40;43.20;;;;;;5093753;27;88494;-66
2022/01/27 08:22:22;;;;;;;1.30;1.00;;;22.30;43.30;;;;;;5084381;27;88525;-65
2022/01/27 08:24:50;;;;;;;3.40;1.60;;;22.30;43.30;;;;;;5081620;27;88416;-65
2022/01/27 08:27:24;;;;;;;4.27;1.67;;;22.20;43.30;;;;;;5062047;27;88478;-65
2022/01/27 08:30:02;;;;;;;6.23;2.03;;;22.20;43.40;;;;;;5087173;27;88580;-65
2022/01/27 08:32:43;;;;;;;3.00;1.60;;;22.10;43.40;;;;;;5097970;27;93537;-66
2022/01/27 08:35:13;;;;;;;5.93;1.93;;;22.10;43.60;;;;;;5080376;27;90011;-65
2022/01/27 08:37:41;;;;;;;9.00;1.80;;;22.00;43.50;;;;;;5079933;27;90313;-65
2022/01/27 08:40:10;;;;;;;5.77;1.33;;;22.00;43.70;;;;;;5087431;27;88684;-65
2022/01/27 08:43:00;;;;;;;7.50;1.53;;;21.90;43.60;;;;;;5094797;27;90137;-65
2022/01/27 08:45:28;;;;;;;3.53;1.50;;;21.90;43.70;;;;;;5080328;27;90084;-65
2022/01/27 08:47:58;;;;;;;2.37;1.40;;;21.80;43.70;;;;;;5080315;27;88526;-65
2022/01/27 08:50:27;;;;;;;2.67;1.60;;;21.80;43.80;;;;;;5069701;27;88687;-65
2022/01/27 08:52:55;;;;;;;3.30;1.50;;;21.80;43.80;;;;;;5081598;27;93595;-65
2022/01/27 08:55:23;;;;;;;3.47;1.77;;;21.70;43.80;;;;;;5081626;27;90081;-66
2022/01/27 08:57:51;;;;;;;5.70;2.00;;;21.70;43.80;;;;;;5086386;27;88536;-66
2022/01/27 09:00:20;;;;;;;3.13;1.77;;;21.60;43.80;;;;;;5087422;27;88555;-66
2022/01/27 09:02:51;;;;;;;3.00;1.33;;;21.60;44.40;;;;;;5079022;27;89475;-66
2022/01/27 09:05:19;;;;;;;2.13;1.20;;;21.60;43.80;;;;;;5091683;27;89227;-66
2022/01/27 09:07:50;;;;;;;4.43;1.40;;;21.50;43.80;;;;;;5080063;27;88465;-66
2022/01/27 09:10:18;;;;;;;1.87;1.20;;;21.50;43.90;;;;;;5079756;27;89994;-66
2022/01/27 09:12:46;;;;;;;2.73;1.73;;;21.50;43.90;;;;;;5069508;27;89629;-66
2022/01/27 09:15:14;;;;;;;3.60;1.57;;;21.50;43.90;;;;;;5077642;27;90025;-66
2022/01/27 09:17:42;;;;;;;2.20;1.30;;;21.40;43.90;;;;;;5081742;27;88486;-65
2022/01/27 09:20:11;;;;;;;1.77;1.10;;;21.40;43.90;;;;;;5089565;27;88633;-65
2022/01/27 09:22:39;;;;;;;2.40;1.60;;;21.40;43.90;;;;;;5080593;27;89547;-65
2022/01/27 09:25:14;;;;;;;1.23;1.10;;;21.40;44.00;;;;;;5082553;27;88936;-65
2022/01/27 09:27:43;;;;;;;2.07;1.47;;;21.30;43.90;;;;;;5080286;27;88598;-65
2022/01/27 09:30:12;;;;;;;1.67;1.20;;;21.40;44.10;;;;;;5085521;27;88628;-65
2022/01/27 09:32:40;;;;;;;2.17;1.40;;;21.50;44.10;;;;;;5081517;27;89487;-65
2022/01/27 09:35:30;;;;;;;3.60;1.17;;;21.50;44.10;;;;;;5095018;27;91668;-65
2022/01/27 09:37:58;;;;;;;4.90;1.40;;;21.70;44.10;;;;;;5058235;27;88539;-65
2022/01/27 09:40:28;;;;;;;1.90;1.27;;;21.90;44.10;;;;;;5055139;27;88614;-66
2022/01/27 09:42:56;;;;;;;2.20;1.23;;;22.10;44.10;;;;;;5055453;27;90102;-65
2022/01/27 09:45:24;;;;;;;1.10;1.00;;;22.20;43.90;;;;;;5057168;27;90177;-65
2022/01/27 09:47:57;;;;;;;2.03;1.10;;;22.30;43.80;;;;;;5055735;27;88954;-65
2022/01/27 09:50:35;;;;;;;2.20;1.20;;;22.40;43.90;;;;;;5052970;27;88539;-66
2022/01/27 09:53:04;;;;;;;2.63;1.30;;;22.40;43.80;;;;;;5049017;27;89615;-65
2022/01/27 09:55:33;;;;;;;3.27;1.40;;;22.50;43.80;;;;;;5065036;27;93111;-65
2022/01/27 09:58:05;;;;;;;1.50;1.30;;;22.50;43.90;;;;;;5063582;27;89306;-65
2022/01/27 10:00:33;;;;;;;5.03;1.00;;;22.50;43.90;;;;;;5060144;27;88645;-65
2022/01/27 10:03:03;;;;;;;2.57;1.10;;;22.50;43.90;;;;;;5054414;27;90482;-65
2022/01/27 10:05:31;;;;;;;2.97;1.03;;;22.60;44.10;;;;;;5070561;27;89097;-65
2022/01/27 10:08:04;;;;;;;2.37;1.30;;;22.70;44.10;;;;;;5084608;27;88170;-65
2022/01/27 10:10:37;;;;;;;2.50;1.20;;;22.80;44.00;;;;;;5077236;27;89253;-65
2022/01/27 10:13:10;;;;;;;3.63;1.30;;;23.00;44.00;;;;;;5066136;27;90665;-65
2022/01/27 10:15:45;;;;;;;1.20;1.10;;;23.10;43.90;;;;;;5075865;27;90213;-65
2022/01/27 10:18:14;;;;;;;2.20;1.10;;;23.20;43.90;;;;;;5056438;27;88354;-65
2022/01/27 10:20:43;;;;;;;2.80;1.03;;;23.30;43.90;;;;;;5081159;27;88457;-64
2022/01/27 10:23:17;;;;;;;3.73;1.40;;;23.30;43.90;;;;;;5051409;27;89975;-66
2022/01/27 10:25:51;;;;;;;7.13;1.10;;;23.20;43.90;;;;;;5062350;27;90130;-66
2022/01/27 10:28:28;;;;;;;1.50;1.07;;;23.20;43.90;;;;;;5050816;27;88571;-66
2022/01/27 10:31:01;;;;;;;4.20;1.53;;;23.20;43.90;;;;;;5063852;27;88640;-66
2022/01/27 10:33:40;;;;;;;1.90;1.10;;;23.30;43.90;;;;;;5068706;27;90554;-66
2022/01/27 10:36:19;;;;;;;1.47;0.97;;;23.40;43.90;;;;;;5063593;27;88518;-66
2022/01/27 10:38:47;;;;;;;2.60;1.40;;;23.50;43.70;;;;;;5063454;27;88657;-67
2022/01/27 10:41:20;;;;;;;1.43;1.23;;;23.80;43.70;;;;;;5075691;27;88564;-67
2022/01/27 10:43:48;;;;;;;2.67;0.97;;;23.90;43.50;;;;;;5096865;27;89468;-67
2022/01/27 10:46:22;;;;;;;1.50;1.10;;;24.10;43.40;;;;;;5083118;27;89934;-67
2022/01/27 10:48:55;;;;;;;1.40;0.87;;;24.20;43.20;;;;;;5088938;27;88500;-67
2022/01/27 10:51:26;;;;;;;2.47;1.20;;;24.30;43.20;;;;;;5099157;27;90204;-67
2022/01/27 10:53:59;;;;;;;3.33;1.20;;;24.30;43.00;;;;;;5083011;27;89647;-69
2022/01/27 10:56:30;;;;;;;3.93;1.30;;;24.30;43.00;;;;;;5068026;27;88772;-71
2022/01/27 10:58:59;;;;;;;4.23;1.17;;;24.30;43.00;;;;;;5086653;27;88580;-65
2022/01/27 11:01:31;;;;;;;3.87;1.33;;;24.20;43.00;;;;;;5081731;27;88737;-65
2022/01/27 11:04:00;;;;;;;1.87;1.30;;;24.10;42.90;;;;;;5078244;27;90783;-65
2022/01/27 11:06:31;;;;;;;8.80;1.97;;;24.10;43.00;;;;;;5088067;27;89944;-65
2022/01/27 11:09:01;;;;;;;5.13;1.27;;;24.00;43.00;;;;;;5079136;27;89196;-65
2022/01/27 11:11:31;;;;;;;3.13;1.40;;;24.00;43.10;;;;;;5092698;27;88475;-65
2022/01/27 11:13:59;;;;;;;0.80;0.80;;;23.90;43.70;;;;;;5102917;27;90810;-65
2022/01/27 11:16:34;;;;;;;1.70;1.40;;;23.90;43.20;;;;;;5101788;27;90183;-65
2022/01/27 11:22:00;;;;;;;1.93;1.20;;;23.70;43.20;;;;;;5060745;27;88772;-65
2022/01/27 11:24:33;;;;;;;2.27;1.30;;;23.60;43.20;;;;;;5082525;27;88579;-65
2022/01/27 11:27:05;;;;;;;1.50;1.10;;;23.50;43.30;;;;;;5070193;27;91967;-65
2022/01/27 11:29:33;;;;;;;1.60;1.00;;;23.50;43.30;;;;;;5096189;27;88368;-65
2022/01/27 11:32:22;;;;;;;2.60;1.40;;;23.40;43.30;;;;;;5086496;27;89680;-65
2022/01/27 11:34:52;;;;;;;1.23;1.00;;;23.30;43.40;;;;;;5094485;27;91873;-65
2022/01/27 11:37:33;;;;;;;1.70;1.10;;;23.30;43.50;;;;;;5099850;27;90056;-65
2022/01/27 11:40:06;;;;;;;3.10;1.20;;;23.20;43.50;;;;;;5092205;27;88352;-67
2022/01/27 11:43:06;;;;;;;4.17;1.50;;;23.30;43.60;;;;;;5092129;27;88628;-66
2022/01/27 11:45:36;;;;;;;2.83;1.00;;;23.30;43.60;;;;;;5073378;27;89709;-67
2022/01/27 11:48:08;;;;;;;3.77;1.00;;;23.40;43.70;;;;;;5075842;27;89295;-65
2022/01/27 11:50:47;;;;;;;2.87;1.13;;;23.60;43.80;;;;;;5082569;27;88405;-66
2022/01/27 11:53:29;;;;;;;3.43;1.27;;;23.70;43.70;;;;;;5081791;27;88627;-65
2022/01/27 11:55:57;;;;;;;4.57;1.43;;;23.90;43.70;;;;;;5087214;27;90706;-65
2022/01/27 11:58:27;;;;;;;1.30;0.80;;;24.00;43.70;;;;;;5096832;27;90938;-66
2022/01/27 12:01:06;;;;;;;2.17;1.37;;;24.10;43.70;;;;;;5102814;27;88454;-65
2022/01/27 12:03:34;;;;;;;3.23;1.27;;;24.10;43.60;;;;;;5078116;27;88573;-65
2022/01/27 12:06:21;;;;;;;3.43;1.50;;;24.10;43.60;;;;;;5093321;27;89861;-65
2022/01/27 12:08:50;;;;;;;5.60;1.10;;;24.00;43.70;;;;;;5086435;27;89934;-66
2022/01/27 12:11:49;;;;;;;2.63;1.50;;;24.00;43.70;;;;;;5093117;27;88568;-65
2022/01/27 12:14:22;;;;;;;1.83;1.20;;;23.90;43.70;;;;;;5088599;27;88628;-65
2022/01/27 12:17:34;;;;;;;3.17;1.20;;;23.90;43.70;;;;;;5079492;27;92560;-65
2022/01/27 12:20:05;;;;;;;1.73;1.33;;;23.80;43.80;;;;;;5029862;27;88852;-65
2022/01/27 12:23:01;;;;;;;3.27;1.47;;;23.80;43.80;;;;;;5061902;27;88352;-66
2022/01/27 12:25:48;;;;;;;1.10;0.93;;;23.70;43.90;;;;;;5075371;27;89247;-65
2022/01/27 12:28:16;;;;;;;1.40;1.30;;;23.60;43.90;;;;;;5082937;27;90918;-65
2022/01/27 12:30:57;;;;;;;1.73;1.23;;;23.60;44.00;;;;;;5081381;27;89979;-66
2022/01/27 12:33:25;;;;;;;2.03;0.97;;;23.50;44.00;;;;;;5083736;27;88421;-65
2022/01/27 12:35:54;;;;;;;2.47;1.33;;;23.50;44.10;;;;;;5082191;27;88498;-66
2022/01/27 12:38:23;;;;;;;1.20;1.10;;;23.40;44.10;;;;;;5080212;27;90796;-66
2022/01/27 12:40:56;;;;;;;1.73;1.10;;;23.40;44.10;;;;;;5083540;27;88997;-66
2022/01/27 12:43:24;;;;;;;1.67;1.20;;;23.30;44.10;;;;;;5084602;27;88413;-66
2022/01/27 12:45:52;;;;;;;3.60;1.13;;;23.30;44.10;;;;;;5092352;27;88641;-66
2022/01/27 12:48:25;;;;;;;3.10;1.33;;;23.30;44.20;;;;;;5097170;27;92477;-66
2022/01/27 12:51:00;;;;;;;1.23;1.10;;;23.30;44.20;;;;;;5083806;27;90037;-65
2022/01/27 12:53:30;;;;;;;2.93;1.27;;;23.30;44.20;;;;;;5078335;27;88393;-66
2022/01/27 12:56:00;;;;;;;2.37;1.03;;;23.30;44.20;;;;;;5097997;27;88565;-66
2022/01/27 12:58:30;;;;;;;4.37;1.20;;;23.50;44.20;;;;;;5087223;27;90770;-65
2022/01/27 13:00:58;;;;;;;4.63;1.10;;;23.60;44.20;;;;;;5092317;27;89208;-66
2022/01/27 13:03:27;;;;;;;2.83;1.20;;;23.80;44.10;;;;;;5093427;27;89531;-65
2022/01/27 13:05:59;;;;;;;4.43;1.50;;;23.90;44.00;;;;;;5097498;27;88549;-65
2022/01/27 13:08:30;;;;;;;1.73;1.23;;;24.00;43.90;;;;;;5084307;27;90378;-67
2022/01/27 13:11:09;;;;;;;3.17;0.97;;;24.10;44.50;;;;;;5081355;27;88954;-66
2022/01/27 13:13:41;;;;;;;1.13;0.60;;;24.10;43.70;;;;;;5084480;27;88359;-65
2022/01/27 13:16:15;;;;;;;1.87;0.80;;;24.10;43.70;;;;;;5081658;27;88478;-66
2022/01/27 13:19:03;;;;;;;3.70;1.30;;;24.10;43.60;;;;;;5081177;27;89460;-65
2022/01/27 13:21:34;;;;;;;2.83;1.33;;;24.00;43.60;;;;;;5079611;27;88622;-67
2022/01/27 13:24:04;;;;;;;4.03;1.60;;;24.00;43.60;;;;;;5071976;27;88558;-67
2022/01/27 13:26:32;;;;;;;5.43;1.30;;;24.00;43.70;;;;;;5102185;27;88479;-68
2022/01/27 13:29:00;;;;;;;4.20;1.40;;;23.90;43.60;;;;;;5085808;27;89625;-66
2022/01/27 13:31:28;;;;;;;1.60;1.13;;;23.80;43.70;;;;;;5089684;27;88961;-66
2022/01/27 13:34:01;;;;;;;5.93;1.53;;;23.80;43.70;;;;;;5095402;27;88622;-66